Time;durP1;ratioP1;P1;durP2;ratioP2;P2;SDS_P1;SDS_P2;PMS_P1;PMS_P2;Temp;Humidity;BMP_temperature;BMP_pressure;BME280_temperature;BME280_humidity;BME280_pressure;Samples;Min_cycle;Max_cycle;Signal;HPM_P1;HPM_P2
2021/01/13 00:01:55;;;;;;;72.47;25.10;;;;;;;0.89;83.26;98666.44;4934867;29;20051;-62
2021/01/13 00:04:21;;;;;;;56.92;23.60;;;;;;;0.91;83.22;98662.06;4934591;29;20048;-63
2021/01/13 00:06:49;;;;;;;65.13;23.00;;;;;;;0.96;83.32;98658.53;4934821;29;20058;-64
2021/01/13 00:09:15;;;;;;;68.60;24.92;;;;;;;0.96;83.23;98653.38;4934020;29;20647;-62
2021/01/13 00:11:41;;;;;;;62.80;21.25;;;;;;;0.96;83.16;98658.53;4934612;29;20139;-64
2021/01/13 00:14:08;;;;;;;52.17;20.27;;;;;;;0.98;83.42;98654.19;4934415;29;20139;-63
2021/01/13 00:16:35;;;;;;;61.88;22.23;;;;;;;1.01;83.15;98664.41;4934461;29;20048;-64
2021/01/13 00:19:01;;;;;;;58.47;22.20;;;;;;;1.03;83.22;98660.91;4934694;29;20074;-63
2021/01/13 00:21:28;;;;;;;68.05;25.05;;;;;;;1.05;83.04;98658.31;4934013;29;20062;-63
2021/01/13 00:23:54;;;;;;;63.38;24.27;;;;;;;1.07;83.26;98659.13;4934474;29;20070;-64
2021/01/13 00:26:21;;;;;;;62.65;23.92;;;;;;;1.11;83.23;98658.16;4934322;29;20130;-62
2021/01/13 00:28:48;;;;;;;67.43;24.38;;;;;;;1.15;82.94;98663.19;4933994;29;20080;-63
2021/01/13 00:31:14;;;;;;;58.05;22.88;;;;;;;1.17;83.17;98670.88;4934250;29;20056;-63
2021/01/13 00:33:44;;;;;;;61.70;22.83;;;;;;;1.19;82.90;98669.13;4934550;29;20040;-63
2021/01/13 00:36:16;;;;;;;56.50;24.03;;;;;;;1.22;82.87;98669.03;4934224;29;20139;-63
2021/01/13 00:38:43;;;;;;;57.78;23.48;;;;;;;1.25;82.87;98679.31;4933392;29;20317;-63
2021/01/13 00:41:12;;;;;;;58.08;23.77;;;;;;;1.24;82.65;98672.41;4933919;29;20134;-62
2021/01/13 00:43:38;;;;;;;54.58;24.38;;;;;;;1.25;82.75;98681.88;4934183;29;20043;-62
2021/01/13 00:46:04;;;;;;;53.78;24.02;;;;;;;1.23;82.75;98681.91;4933730;29;20079;-62
2021/01/13 00:48:30;;;;;;;60.90;24.50;;;;;;;1.26;82.71;98675.00;4933163;29;20094;-64
2021/01/13 00:50:57;;;;;;;57.78;24.48;;;;;;;1.28;82.91;98678.38;4933672;29;20269;-63
2021/01/13 00:53:24;;;;;;;57.53;23.70;;;;;;;1.28;82.63;98668.91;4933894;29;20051;-63
2021/01/13 00:55:50;;;;;;;57.80;24.08;;;;;;;1.27;82.72;98687.84;4933201;29;20130;-62
2021/01/13 00:58:16;;;;;;;54.90;23.92;;;;;;;1.29;82.75;98688.66;4934302;29;20106;-63
2021/01/13 01:00:42;;;;;;;55.45;24.02;;;;;;;1.31;82.75;98689.47;4932349;29;20504;-63
2021/01/13 01:03:08;;;;;;;54.65;23.35;;;;;;;1.30;82.50;98690.34;4934054;29;20058;-62
2021/01/13 01:05:34;;;;;;;57.03;23.52;;;;;;;1.30;82.76;98692.94;4933068;29;20135;-61
2021/01/13 01:08:01;;;;;;;58.67;23.10;;;;;;;1.30;82.77;98698.09;4933163;29;20569;-62
2021/01/13 01:10:31;;;;;;;49.78;22.33;;;;;;;1.29;82.63;98704.16;4933476;29;20119;-61
2021/01/13 01:12:58;;;;;;;50.65;21.95;;;;;;;1.27;82.78;98703.34;4932590;29;20047;-64
2021/01/13 01:15:24;;;;;;;56.53;23.90;;;;;;;1.27;82.72;98712.81;4934161;29;20103;-62
2021/01/13 01:17:50;;;;;;;50.22;20.38;;;;;;;1.26;82.64;98711.13;4933423;29;20043;-62
2021/01/13 01:20:17;;;;;;;48.90;22.15;;;;;;;1.26;82.74;98717.13;4933608;29;20064;-62
2021/01/13 01:22:50;;;;;;;55.72;21.95;;;;;;;1.23;82.72;98712.03;4933200;29;20047;-64
2021/01/13 01:25:18;;;;;;;54.42;22.90;;;;;;;1.22;82.82;98720.66;4933199;29;20875;-63
2021/01/13 01:27:47;;;;;;;42.92;21.45;;;;;;;1.22;83.01;98720.66;4933091;29;20051;-62
2021/01/13 01:30:14;;;;;;;47.13;20.90;;;;;;;1.25;82.78;98722.31;4931313;29;20071;-63
2021/01/13 01:32:40;;;;;;;50.80;22.73;;;;;;;1.30;82.91;98730.81;4934686;29;20055;-62
2021/01/13 01:35:07;;;;;;;52.92;21.65;;;;;;;1.30;82.64;98739.41;4933627;29;20086;-62
2021/01/13 01:37:35;;;;;;;32.25;17.17;;;;;;;1.29;82.99;98740.28;4934040;29;20078;-61
2021/01/13 01:40:02;;;;;;;40.03;19.15;;;;;;;1.28;82.72;98730.84;4933476;29;20056;-62
2021/01/13 01:42:28;;;;;;;36.97;16.95;;;;;;;1.26;82.72;98740.38;4934530;29;20106;-63
2021/01/13 01:44:55;;;;;;;31.00;15.25;;;;;;;1.27;82.69;98742.06;4934374;29;20090;-62
2021/01/13 01:47:59;;;;;;;34.72;15.23;;;;;;;1.26;82.59;98750.69;4932083;29;20514;-62
2021/01/13 01:50:28;;;;;;;33.33;16.40;;;;;;;1.29;82.69;98758.38;4929979;29;20051;-61
2021/01/13 01:53:03;;;;;;;35.05;17.20;;;;;;;1.28;82.75;98759.25;4932587;29;20070;-62
2021/01/13 01:55:34;;;;;;;39.05;17.58;;;;;;;1.32;82.69;98762.59;4933488;29;20048;-63
2021/01/13 01:58:04;;;;;;;;;;;;;;;1.40;82.36;98752.91;4934934;29;20047;-62
2021/01/13 02:00:31;;;;;;;23.33;11.98;;;;;;;1.25;82.38;98766.19;4934752;29;20400;-63
2021/01/13 02:03:09;;;;;;;25.45;11.57;;;;;;;1.17;82.68;98774.13;4938209;29;20044;-63
2021/01/13 02:05:36;;;;;;;22.67;10.82;;;;;;;1.21;82.70;98775.75;4937496;29;20154;-62
2021/01/13 02:08:03;;;;;;;19.27;11.45;;;;;;;1.21;82.41;98778.34;4937260;29;20052;-63
2021/01/13 02:10:29;;;;;;;18.15;10.43;;;;;;;1.20;82.51;98768.91;4937406;29;20048;-62
2021/01/13 02:13:06;;;;;;;18.63;9.80;;;;;;;1.16;82.57;98767.28;4937059;29;20050;-63
2021/01/13 02:15:33;;;;;;;18.48;9.88;;;;;;;1.17;82.33;98771.56;4938156;29;20054;-62
2021/01/13 02:18:04;;;;;;;13.75;8.73;;;;;;;1.12;82.28;98782.00;4937132;29;20052;-62
2021/01/13 02:20:32;;;;;;;16.15;9.30;;;;;;;1.12;82.45;98783.72;4937306;29;20052;-61
2021/01/13 02:23:01;;;;;;;16.27;8.52;;;;;;;1.11;82.31;98788.03;4936906;29;20050;-62
2021/01/13 02:26:07;;;;;;;13.02;7.75;;;;;;;1.04;82.17;98791.66;4937397;29;20079;-62
2021/01/13 02:28:52;;;;;;;13.45;7.40;;;;;;;0.97;82.29;98807.31;4925171;29;20130;-62
2021/01/13 02:31:41;;;;;;;12.52;6.72;;;;;;;0.96;82.23;98800.44;4936600;29;20055;-62
2021/01/13 02:34:17;;;;;;;11.35;6.55;;;;;;;0.93;81.99;98808.25;4937793;29;20051;-61
2021/01/13 02:37:16;;;;;;;11.73;6.63;;;;;;;0.85;82.23;98811.88;4937130;29;20056;-62
2021/01/13 02:39:45;;;;;;;11.50;7.05;;;;;;;0.82;81.96;98814.50;4936778;29;20432;-62
2021/01/13 02:42:15;;;;;;;8.75;6.43;;;;;;;0.80;81.98;98825.72;4943604;29;20146;-62
2021/01/13 02:44:59;;;;;;;10.63;7.07;;;;;;;0.79;81.97;98830.03;4937477;29;20048;-63
2021/01/13 02:47:51;;;;;;;8.98;5.50;;;;;;;0.79;81.80;98836.94;4936899;29;20099;-63
2021/01/13 02:50:23;;;;;;;16.27;6.95;;;;;;;0.78;81.68;98833.50;4931561;29;20058;-62
2021/01/13 02:53:15;;;;;;;11.32;6.40;;;;;;;0.76;81.73;98840.44;4936570;29;20052;-62
2021/01/13 02:55:51;;;;;;;12.05;6.60;;;;;;;0.76;81.66;98831.84;4915233;29;20055;-63
2021/01/13 02:58:24;;;;;;;11.82;6.50;;;;;;;0.72;81.72;98838.81;4937492;29;20055;-63
2021/01/13 03:00:51;;;;;;;10.05;6.88;;;;;;;0.75;81.57;98831.00;4936857;29;20130;-62
2021/01/13 03:03:18;;;;;;;11.63;7.47;;;;;;;0.78;81.58;98833.50;4937360;29;20278;-63
2021/01/13 03:05:45;;;;;;;13.45;6.75;;;;;;;0.80;81.11;98828.31;4936550;29;20493;-62
2021/01/13 03:08:12;;;;;;;15.98;9.98;;;;;;;0.79;81.18;98827.47;4936448;29;20515;-62
2021/01/13 03:10:40;;;;;;;13.80;7.90;;;;;;;0.80;81.39;98831.72;4936295;29;20138;-61
2021/01/13 03:13:07;;;;;;;13.32;7.80;;;;;;;0.80;81.12;98826.56;4935895;29;20051;-62
2021/01/13 03:15:35;;;;;;;11.13;7.60;;;;;;;0.80;81.17;98836.91;4936518;29;20059;-62
2021/01/13 03:18:07;;;;;;;17.30;9.23;;;;;;;0.80;81.21;98842.06;4935933;29;20506;-62
2021/01/13 03:20:41;;;;;;;12.07;7.97;;;;;;;0.76;81.10;98845.59;4935897;29;20114;-61
2021/01/13 03:23:14;;;;;;;13.70;7.32;;;;;;;0.73;81.24;98845.66;4936368;29;20059;-62
2021/01/13 03:25:50;;;;;;;11.95;6.95;;;;;;;0.69;81.22;98844.03;4937113;29;20876;-62
2021/01/13 03:28:19;;;;;;;11.55;6.85;;;;;;;0.66;81.11;98832.94;4935087;29;20063;-62
2021/01/13 03:30:49;;;;;;;12.77;6.78;;;;;;;0.57;81.06;98852.00;4935769;29;20091;-62
2021/01/13 03:34:01;;;;;;;10.05;5.47;;;;;;;0.55;81.08;98853.78;4936598;29;20044;-63
2021/01/13 03:36:40;;;;;;;13.40;6.68;;;;;;;0.51;81.22;98849.56;4935912;29;20054;-63
2021/01/13 03:39:08;;;;;;;11.63;6.20;;;;;;;0.49;81.14;98854.75;4935648;29;20134;-63
2021/01/13 03:41:58;;;;;;;12.52;6.97;;;;;;;0.48;81.07;98854.78;4935624;29;20094;-63
2021/01/13 03:44:26;;;;;;;10.40;5.78;;;;;;;0.46;80.74;98857.41;4935448;29;20511;-63
2021/01/13 03:46:54;;;;;;;14.38;6.28;;;;;;;0.46;80.82;98851.38;4935532;29;20048;-63
2021/01/13 03:49:27;;;;;;;7.90;5.05;;;;;;;0.43;80.84;98848.88;4936319;29;20062;-62
2021/01/13 03:52:03;;;;;;;12.90;7.10;;;;;;;0.42;80.70;98849.75;4936030;29;20048;-63
2021/01/13 03:54:35;;;;;;;12.25;6.72;;;;;;;0.42;80.57;98854.91;4935419;29;20503;-63
2021/01/13 03:57:03;;;;;;;11.75;6.18;;;;;;;0.43;80.52;98872.06;4935811;29;20059;-63
2021/01/13 03:59:43;;;;;;;11.10;6.43;;;;;;;0.42;80.58;98872.97;4935228;29;20058;-63
2021/01/13 04:02:11;;;;;;;12.48;6.80;;;;;;;0.45;80.55;98865.16;4931232;29;20054;-63
2021/01/13 04:04:47;;;;;;;13.10;6.22;;;;;;;0.44;80.52;98879.78;4935193;29;20107;-63
2021/01/13 04:07:15;;;;;;;13.25;5.95;;;;;;;0.47;80.47;98878.88;4934455;29;20054;-63
2021/01/13 04:09:42;;;;;;;11.27;6.38;;;;;;;0.45;80.26;98883.22;4935652;29;20046;-64
2021/01/13 04:12:11;;;;;;;13.43;6.68;;;;;;;0.46;80.25;98883.19;4935127;29;20055;-64
2021/01/13 04:14:50;;;;;;;12.80;7.22;;;;;;;0.46;80.34;98882.31;4935211;29;20449;-63
2021/01/13 04:17:18;;;;;;;13.95;7.63;;;;;;;0.48;80.32;98870.25;4932429;29;20055;-63
2021/01/13 04:19:47;;;;;;;14.95;7.38;;;;;;;0.44;80.16;98884.09;4935327;29;20055;-63
2021/01/13 04:22:14;;;;;;;16.90;8.27;;;;;;;0.46;80.31;98887.47;4934549;29;20067;-63
2021/01/13 04:24:42;;;;;;;14.60;7.18;;;;;;;0.40;80.13;98882.44;4934975;29;20056;-62
2021/01/13 04:27:11;;;;;;;15.50;6.80;;;;;;;0.39;79.98;98885.88;4935492;29;20484;-62
2021/01/13 04:29:38;;;;;;;18.50;7.65;;;;;;;0.38;80.44;98879.03;4934995;29;20052;-63
2021/01/13 04:32:05;;;;;;;16.27;8.18;;;;;;;0.38;80.31;98885.03;4935184;29;20051;-64
2021/01/13 04:34:31;;;;;;;17.67;9.45;;;;;;;0.41;80.02;98889.28;4934641;29;20054;-63
2021/01/13 04:37:03;;;;;;;12.65;7.60;;;;;;;0.39;80.27;98891.03;4934832;29;21752;-62
2021/01/13 04:39:29;;;;;;;15.45;7.20;;;;;;;0.39;80.31;98888.47;4930911;29;20155;-63
2021/01/13 04:42:03;;;;;;;18.17;7.90;;;;;;;0.35;80.34;98889.41;4935184;29;20047;-63
2021/01/13 04:44:32;;;;;;;28.13;10.82;;;;;;;0.35;80.10;98891.97;4934885;29;20127;-63
2021/01/13 04:47:05;;;;;;;32.78;10.48;;;;;;;0.32;80.12;98884.31;4934303;29;20055;-62
2021/01/13 04:49:33;;;;;;;20.17;10.40;;;;;;;0.29;80.39;98888.66;4931114;29;20055;-62
2021/01/13 04:52:05;;;;;;;18.73;9.25;;;;;;;0.28;80.29;98886.94;4934202;29;20420;-63
2021/01/13 04:54:36;;;;;;;18.33;8.13;;;;;;;0.30;80.26;98892.06;4934638;29;20099;-62
2021/01/13 04:57:26;;;;;;;18.00;8.43;;;;;;;0.34;80.51;98903.16;4934270;29;20050;-62
2021/01/13 05:00:11;;;;;;;17.33;8.30;;;;;;;0.36;80.42;98898.84;4931737;29;20105;-63
2021/01/13 05:03:13;;;;;;;21.38;10.40;;;;;;;0.39;80.47;98907.34;4934086;29;20086;-63
2021/01/13 05:05:49;;;;;;;14.75;8.35;;;;;;;0.40;80.50;98903.91;4934094;29;20058;-63
2021/01/13 05:08:25;;;;;;;14.40;7.95;;;;;;;0.40;80.54;98903.06;4934150;29;20064;-61
2021/01/13 05:10:57;;;;;;;29.63;11.70;;;;;;;0.45;80.39;98896.09;4933899;29;20047;-63
2021/01/13 05:13:24;;;;;;;21.73;10.10;;;;;;;0.51;80.43;98901.13;4943185;29;20136;-63
2021/01/13 05:15:55;;;;;;;22.40;10.63;;;;;;;0.52;80.33;98901.09;4937632;29;20048;-62
2021/01/13 05:18:50;;;;;;;23.95;10.35;;;;;;;0.54;80.39;98904.50;4934309;29;20052;-62
2021/01/13 05:21:18;;;;;;;29.55;11.75;;;;;;;0.59;80.46;98909.56;4930363;29;20529;-63
2021/01/13 05:23:48;;;;;;;31.27;12.35;;;;;;;0.62;80.33;98914.66;4933931;29;20066;-62
2021/01/13 05:26:17;;;;;;;27.48;12.30;;;;;;;0.65;80.17;98922.34;4934094;29;20447;-63
2021/01/13 05:29:16;;;;;;;25.38;11.80;;;;;;;0.67;80.21;98922.31;4934171;29;20039;-63
2021/01/13 05:31:43;;;;;;;24.13;11.27;;;;;;;0.70;79.99;98923.09;4933984;29;20052;-63
2021/01/13 05:34:13;;;;;;;29.02;12.18;;;;;;;0.72;80.11;98925.66;4934242;29;20159;-63
2021/01/13 05:36:44;;;;;;;26.27;11.68;;;;;;;0.71;80.25;98929.97;4933664;29;20051;-64
2021/01/13 05:39:12;;;;;;;23.58;10.85;;;;;;;0.74;80.35;98934.22;4933940;29;20151;-64
2021/01/13 05:41:39;;;;;;;25.33;11.57;;;;;;;0.75;80.28;98936.75;4934109;29;20071;-63
2021/01/13 05:44:07;;;;;;;25.92;11.02;;;;;;;0.76;80.06;98948.78;4933379;29;20074;-63
2021/01/13 05:46:43;;;;;;;23.50;10.65;;;;;;;0.72;80.32;98944.56;4932561;29;20455;-63
2021/01/13 05:49:10;;;;;;;39.42;13.45;;;;;;;0.75;80.16;98954.81;4933854;29;20048;-62
2021/01/13 05:51:37;;;;;;;36.85;13.40;;;;;;;0.77;80.15;98955.63;4933804;29;20055;-62
2021/01/13 05:54:04;;;;;;;32.75;12.68;;;;;;;0.81;80.05;98956.41;4932885;29;20059;-63
2021/01/13 05:56:36;;;;;;;43.20;16.20;;;;;;;0.85;80.16;98953.75;4934497;29;20087;-64
2021/01/13 05:59:03;;;;;;;42.92;16.70;;;;;;;0.88;80.08;98953.69;4933596;29;20048;-63
2021/01/13 06:01:40;;;;;;;44.83;17.92;;;;;;;0.90;80.13;98962.25;4933593;29;20055;-63
2021/01/13 06:04:07;;;;;;;44.92;19.98;;;;;;;0.95;79.88;98959.56;4933802;29;20102;-63
2021/01/13 06:06:36;;;;;;;48.05;18.95;;;;;;;0.96;79.77;98948.38;4932296;29;20048;-64
2021/01/13 06:09:04;;;;;;;40.88;15.95;;;;;;;0.98;79.71;98948.34;4933278;29;20052;-63
2021/01/13 06:11:34;;;;;;;36.55;15.90;;;;;;;0.97;79.77;98947.50;4934685;29;20136;-62
2021/01/13 06:14:03;;;;;;;31.27;15.25;;;;;;;0.98;79.84;98958.66;4928627;29;20040;-62
2021/01/13 06:16:29;;;;;;;37.30;17.00;;;;;;;0.93;79.81;98969.09;4930195;29;20050;-62
2021/01/13 06:18:56;;;;;;;39.42;19.40;;;;;;;0.87;79.81;98972.66;4936216;29;20043;-62
2021/01/13 06:21:23;;;;;;;36.83;16.75;;;;;;;0.85;80.24;98969.25;4932009;29;20058;-62
2021/01/13 06:23:50;;;;;;;32.95;15.18;;;;;;;0.86;80.16;98968.38;4929745;29;20056;-62
2021/01/13 06:26:17;;;;;;;25.77;13.68;;;;;;;0.85;80.09;98970.97;4932247;29;20412;-61
2021/01/13 06:29:38;;;;;;;39.92;18.52;;;;;;;0.83;80.15;98976.16;4933070;29;20083;-62
2021/01/13 06:32:16;;;;;;;58.78;23.88;;;;;;;0.77;80.17;98986.59;4933639;29;20048;-62
2021/01/13 06:34:54;;;;;;;47.33;18.95;;;;;;;0.74;80.41;98994.38;4929423;29;20048;-61
2021/01/13 06:37:23;;;;;;;40.67;16.85;;;;;;;0.73;80.46;98992.69;4927631;29;20456;-62
2021/01/13 06:39:50;;;;;;;33.08;14.60;;;;;;;0.76;80.53;98990.03;4926553;29;20058;-63
2021/01/13 06:42:28;;;;;;;38.40;15.85;;;;;;;0.74;80.52;98994.38;4928827;29;20056;-62
2021/01/13 06:44:55;;;;;;;31.65;15.98;;;;;;;0.79;80.62;99002.03;4933908;29;20427;-62
2021/01/13 06:47:21;;;;;;;34.63;16.75;;;;;;;0.82;80.43;99000.25;4930499;29;20058;-62
2021/01/13 06:49:49;;;;;;;36.47;16.60;;;;;;;0.84;80.74;99001.09;4932067;29;20106;-62
2021/01/13 06:52:28;;;;;;;39.95;17.90;;;;;;;0.85;80.68;99010.53;4931112;29;20059;-62
2021/01/13 06:54:56;;;;;;;37.67;16.80;;;;;;;0.82;80.52;99004.53;4927440;29;20048;-62
2021/01/13 06:57:26;;;;;;;41.75;17.77;;;;;;;0.82;80.71;99005.41;4934071;29;20062;-63
2021/01/13 06:59:52;;;;;;;37.47;16.83;;;;;;;0.83;80.72;99009.72;4931158;29;20056;-62
2021/01/13 07:02:30;;;;;;;44.88;18.02;;;;;;;0.82;80.64;99005.41;4930309;29;20498;-62
2021/01/13 07:04:56;;;;;;;34.42;16.40;;;;;;;0.82;80.66;99015.72;4927665;29;20076;-62
2021/01/13 07:07:22;;;;;;;39.17;16.45;;;;;;;0.82;80.78;99020.88;4933603;29;20434;-62
2021/01/13 07:09:50;;;;;;;30.02;14.85;;;;;;;0.80;80.82;99022.63;4931251;29;20070;-62
2021/01/13 07:12:18;;;;;;;40.45;16.48;;;;;;;0.79;80.83;99025.25;4929718;29;20472;-62
2021/01/13 07:14:45;;;;;;;37.38;17.48;;;;;;;0.77;80.99;99027.84;4934189;29;20058;-63
2021/01/13 07:17:15;;;;;;;36.28;16.65;;;;;;;0.82;80.91;99033.78;4932132;29;20060;-63
2021/01/13 07:19:46;;;;;;;36.63;16.25;;;;;;;0.87;80.97;99041.47;4929438;29;20032;-63
2021/01/13 07:22:13;;;;;;;;;;;;;;;0.91;80.86;99043.94;4929039;29;20146;-63
2021/01/13 07:24:41;;;;;;;34.83;15.70;;;;;;;0.85;80.88;99046.66;4933502;29;20417;-63
2021/01/13 07:27:09;;;;;;;40.05;18.80;;;;;;;0.89;81.20;99047.44;4935764;29;20056;-62
2021/01/13 07:29:35;;;;;;;37.80;16.88;;;;;;;0.98;81.20;99048.97;4932843;29;20052;-62
2021/01/13 07:32:04;;;;;;;34.50;16.65;;;;;;;1.02;80.92;99054.03;4936330;29;20137;-63
2021/01/13 07:34:33;;;;;;;38.40;16.58;;;;;;;1.09;80.94;99057.38;4936048;29;20046;-63
2021/01/13 07:37:02;;;;;;;35.08;17.02;;;;;;;1.15;80.88;99057.25;4935443;29;20513;-63
2021/01/13 07:40:04;;;;;;;43.47;20.95;;;;;;;1.19;80.75;99056.31;4935647;29;20102;-63
2021/01/13 07:42:38;;;;;;;37.05;17.63;;;;;;;1.22;80.81;99059.69;4934481;29;20138;-62
2021/01/13 07:45:07;;;;;;;32.40;17.38;;;;;;;1.22;80.54;99069.16;4935361;29;20044;-63
2021/01/13 07:48:15;;;;;;;34.25;17.15;;;;;;;1.23;80.79;99068.28;4935408;29;20040;-62
2021/01/13 07:50:42;;;;;;;33.05;16.05;;;;;;;1.28;80.66;99070.78;4927552;29;20062;-62
2021/01/13 07:53:11;;;;;;;33.63;16.67;;;;;;;1.30;80.63;99075.03;4935934;29;20052;-62
2021/01/13 07:55:42;;;;;;;33.33;15.35;;;;;;;1.28;80.83;99079.38;4935523;29;20054;-61
2021/01/13 07:58:19;;;;;;;35.05;16.85;;;;;;;1.30;80.87;99075.03;4935432;29;20110;-62
2021/01/13 08:00:59;;;;;;;33.70;16.38;;;;;;;1.34;80.66;99081.00;4934758;29;20058;-62
2021/01/13 08:04:17;;;;;;;29.83;14.30;;;;;;;1.36;80.79;99081.81;4926390;29;20055;-62
2021/01/13 08:06:47;;;;;;;25.60;13.23;;;;;;;1.38;80.50;99093.81;4934767;29;20447;-63
2021/01/13 08:09:18;;;;;;;28.77;13.90;;;;;;;1.39;80.55;99085.16;4935220;29;20048;-62
2021/01/13 08:12:17;;;;;;;20.90;11.32;;;;;;;1.42;80.78;99086.84;4935190;29;20138;-62
2021/01/13 08:15:34;;;;;;;23.27;12.43;;;;;;;1.43;80.50;99085.97;4935177;29;20470;-61
2021/01/13 08:18:45;;;;;;;19.13;10.35;;;;;;;1.41;80.70;99093.75;4933253;29;20057;-62
2021/01/13 08:21:14;;;;;;;18.67;10.73;;;;;;;1.35;80.41;99093.88;4921765;29;20606;-61
2021/01/13 08:23:47;;;;;;;26.27;12.57;;;;;;;1.35;80.52;99099.03;4926602;29;20222;-61
2021/01/13 08:26:16;;;;;;;40.95;20.52;;;;;;;1.37;80.41;99104.16;4932266;29;20059;-61
2021/01/13 08:28:48;;;;;;;17.98;10.50;;;;;;;1.40;80.23;99099.78;4930844;29;20543;-61
2021/01/13 08:31:19;;;;;;;;;;;;;;;1.50;80.21;99106.50;4932048;29;20066;-62
2021/01/13 08:33:47;;;;;;;25.50;10.45;;;;;;;1.40;80.18;99104.09;4924223;29;19923;-62
2021/01/13 08:36:15;;;;;;;20.60;9.07;;;;;;;1.39;80.25;99105.84;4928198;29;20286;-62
2021/01/13 08:39:06;;;;;;;25.55;10.65;;;;;;;1.38;80.30;99111.88;4919459;29;20391;-62
2021/01/13 08:41:34;;;;;;;19.48;9.90;;;;;;;1.38;80.12;99114.47;4925372;29;20407;-62
2021/01/13 08:44:03;;;;;;;21.25;11.40;;;;;;;1.39;80.09;99116.16;4929546;29;20102;-61
2021/01/13 08:46:48;;;;;;;28.08;12.85;;;;;;;1.41;80.17;99124.72;4931882;29;20048;-62
2021/01/13 08:49:26;;;;;;;27.40;12.60;;;;;;;1.45;79.92;99128.94;4930189;29;20044;-62
2021/01/13 08:52:15;;;;;;;29.40;12.43;;;;;;;1.46;79.85;99146.19;4929176;29;20062;-65
2021/01/13 08:54:43;;;;;;;19.35;8.55;;;;;;;1.40;79.58;99135.94;4933084;29;20052;-65
2021/01/13 08:57:12;;;;;;;23.38;8.50;;;;;;;1.35;79.83;99130.03;4926453;29;20060;-65
2021/01/13 08:59:40;;;;;;;22.05;10.07;;;;;;;1.38;79.75;99124.78;4933170;29;20043;-65
2021/01/13 09:02:11;;;;;;;19.63;10.10;;;;;;;1.42;79.71;99125.56;4929716;29;20076;-66
2021/01/13 09:04:48;;;;;;;16.33;9.52;;;;;;;1.44;79.58;99131.56;4924186;29;20047;-65
2021/01/13 09:07:16;;;;;;;22.60;10.35;;;;;;;1.52;79.38;99138.28;4926341;29;20063;-66
2021/01/13 09:09:53;;;;;;;20.73;10.27;;;;;;;1.62;79.15;99136.38;4926704;29;20039;-66
2021/01/13 09:12:32;;;;;;;22.90;10.85;;;;;;;1.67;79.18;99128.56;4924931;29;20043;-65
2021/01/13 09:15:19;;;;;;;22.80;11.20;;;;;;;1.76;79.10;99130.94;4935107;29;20048;-65
2021/01/13 09:17:56;;;;;;;15.45;8.43;;;;;;;1.82;79.09;99123.03;4926492;29;20075;-65
2021/01/13 09:20:25;;;;;;;22.60;9.32;;;;;;;1.80;78.98;99127.41;4925925;29;20051;-65
2021/01/13 09:22:53;;;;;;;17.65;9.95;;;;;;;1.80;79.10;99127.41;4929573;29;20736;-65
2021/01/13 09:25:21;;;;;;;18.70;8.57;;;;;;;1.82;78.78;99130.78;4932223;29;20047;-65
2021/01/13 09:27:51;;;;;;;15.77;9.30;;;;;;;1.79;79.02;99121.38;4929844;29;20039;-66
2021/01/13 09:30:29;;;;;;;21.63;9.98;;;;;;;1.79;78.98;99128.28;4927501;29;20054;-65
2021/01/13 09:32:57;;;;;;;21.95;9.15;;;;;;;1.75;78.83;99112.00;4927569;29;20044;-65
2021/01/13 09:35:24;;;;;;;19.75;9.68;;;;;;;1.74;79.02;99117.19;4929648;29;20043;-65
2021/01/13 09:37:55;;;;;;;28.60;11.20;;;;;;;1.78;78.95;99108.50;4929005;29;20419;-64
2021/01/13 09:40:22;;;;;;;20.17;10.23;;;;;;;1.79;78.68;99110.19;4926115;29;20082;-65
2021/01/13 09:42:57;;;;;;;18.23;8.52;;;;;;;1.71;79.00;99114.69;4923097;29;20074;-65
2021/01/13 09:45:24;;;;;;;22.05;8.85;;;;;;;1.66;79.02;99108.75;4931045;29;20127;-66
2021/01/13 09:47:50;;;;;;;16.10;8.98;;;;;;;1.64;79.16;99107.91;4927866;29;20098;-66
2021/01/13 09:50:21;;;;;;;23.23;10.45;;;;;;;1.64;78.83;99115.66;4925717;29;20062;-66
2021/01/13 09:52:48;;;;;;;23.35;11.20;;;;;;;1.61;79.28;99114.00;4935205;29;20051;-67
2021/01/13 09:55:15;;;;;;;28.98;15.45;;;;;;;1.63;79.17;99117.41;4935197;29;20039;-66
2021/01/13 09:57:42;;;;;;;21.15;10.90;;;;;;;1.63;79.04;99124.31;4932355;29;20408;-66
2021/01/13 10:00:11;;;;;;;28.88;16.17;;;;;;;1.62;79.35;99114.84;4934165;29;20059;-66
2021/01/13 10:02:38;;;;;;;27.10;15.00;;;;;;;1.68;79.25;99104.41;4931575;29;20063;-66
2021/01/13 10:05:06;;;;;;;22.63;12.70;;;;;;;1.70;78.73;99113.84;4928258;29;20571;-65
2021/01/13 10:07:33;;;;;;;24.83;11.63;;;;;;;1.58;79.24;99123.56;4929682;29;20040;-65
2021/01/13 10:10:01;;;;;;;24.40;12.02;;;;;;;1.50;79.46;99109.06;4925989;29;20070;-65
2021/01/13 10:12:39;;;;;;;26.23;14.15;;;;;;;1.45;79.47;99110.88;4937560;29;20052;-63
2021/01/13 10:15:08;;;;;;;27.20;14.68;;;;;;;1.46;79.50;99116.91;4926300;29;20052;-63
2021/01/13 10:17:35;;;;;;;24.45;13.70;;;;;;;1.43;79.50;99117.78;4921584;29;20055;-63
2021/01/13 10:20:11;;;;;;;28.77;13.18;;;;;;;1.48;79.44;99128.06;4924327;29;21979;-63
2021/01/13 10:22:39;;;;;;;22.42;12.88;;;;;;;1.60;79.38;99125.22;4932726;29;20059;-63
2021/01/13 10:25:07;;;;;;;21.55;11.75;;;;;;;1.63;79.30;99119.97;4931560;29;20055;-63
2021/01/13 10:27:33;;;;;;;30.90;14.77;;;;;;;1.70;79.48;99116.41;4934443;29;20055;-63
2021/01/13 10:29:59;;;;;;;31.42;16.77;;;;;;;1.86;79.29;99116.94;4935791;29;20106;-64
2021/01/13 10:32:26;;;;;;;22.15;12.73;;;;;;;2.00;79.01;99114.91;4939978;29;20471;-65
2021/01/13 10:34:54;;;;;;;28.65;14.45;;;;;;;2.12;78.92;99114.66;4932319;29;20094;-65
2021/01/13 10:37:20;;;;;;;19.55;11.15;;;;;;;2.21;78.53;99113.56;4932356;29;20258;-64
2021/01/13 10:39:47;;;;;;;22.98;12.27;;;;;;;2.37;78.40;99116.66;4930670;29;20126;-65
2021/01/13 10:42:15;;;;;;;24.08;12.82;;;;;;;2.45;78.31;99117.31;4931447;29;20044;-66
2021/01/13 10:44:41;;;;;;;22.88;11.20;;;;;;;2.49;78.15;99124.13;4931006;29;20146;-66
2021/01/13 10:47:09;;;;;;;19.15;10.13;;;;;;;2.49;77.94;99125.88;4927089;29;20057;-67
2021/01/13 10:49:37;;;;;;;23.80;12.35;;;;;;;2.35;78.14;99123.63;4933352;29;20047;-64
2021/01/13 10:52:11;;;;;;;22.63;11.82;;;;;;;2.30;78.26;99117.72;4931865;29;20056;-65
2021/01/13 10:54:40;;;;;;;23.17;11.55;;;;;;;2.22;78.56;99115.28;4934398;29;20044;-64
2021/01/13 10:57:07;;;;;;;28.65;12.82;;;;;;;2.32;78.49;99121.09;4931306;29;20567;-64
2021/01/13 10:59:35;;;;;;;21.02;12.07;;;;;;;2.37;78.27;99111.50;4930361;29;20052;-64
2021/01/13 11:02:04;;;;;;;20.50;10.38;;;;;;;2.42;78.28;99113.09;4926190;29;20401;-63
2021/01/13 11:04:35;;;;;;;19.90;10.77;;;;;;;2.43;77.98;99108.75;4933734;29;20487;-64
2021/01/13 11:07:05;;;;;;;22.85;13.30;;;;;;;2.37;78.04;99107.19;4930382;29;20580;-64
2021/01/13 11:09:33;;;;;;;29.50;13.73;;;;;;;2.42;78.05;99110.50;4935744;28;20147;-64
2021/01/13 11:11:59;;;;;;;31.27;14.30;;;;;;;2.53;77.81;99105.09;4933458;29;20052;-63
2021/01/13 11:14:40;;;;;;;23.55;12.18;;;;;;;2.62;77.36;99098.81;4933088;29;20043;-64
2021/01/13 11:17:11;;;;;;;23.50;10.88;;;;;;;2.66;77.64;99096.13;4930526;29;20052;-64
2021/01/13 11:19:38;;;;;;;31.63;13.43;;;;;;;2.81;77.30;99094.03;4929977;29;20048;-63
2021/01/13 11:22:06;;;;;;;20.40;11.05;;;;;;;2.86;76.95;99097.34;4932749;29;20416;-65
2021/01/13 11:24:35;;;;;;;18.38;9.85;;;;;;;2.77;77.09;99088.09;4932424;29;20074;-62
2021/01/13 11:27:04;;;;;;;22.67;10.82;;;;;;;2.75;77.31;99085.56;4934135;29;20388;-62
2021/01/13 11:29:32;;;;;;;21.50;9.95;;;;;;;2.78;76.94;99088.94;4932225;29;20134;-62
2021/01/13 11:32:00;;;;;;;21.88;10.63;;;;;;;2.77;76.92;99097.59;4931506;29;20058;-62
2021/01/13 11:34:27;;;;;;;23.80;11.25;;;;;;;2.66;76.92;99090.94;4931334;29;20043;-62
2021/01/13 11:37:16;;;;;;;29.25;11.88;;;;;;;2.59;77.02;99093.72;4931015;29;20051;-63
2021/01/13 11:39:50;;;;;;;24.98;11.45;;;;;;;2.56;76.99;99089.47;4928595;29;20048;-64
2021/01/13 11:42:39;;;;;;;26.95;10.13;;;;;;;2.49;77.31;99087.06;4927721;29;20056;-63
2021/01/13 11:45:15;;;;;;;22.10;10.88;;;;;;;2.36;77.55;99081.34;4926356;29;20166;-64
2021/01/13 11:47:46;;;;;;;25.52;12.10;;;;;;;2.34;77.63;99083.13;4926944;29;20127;-63
2021/01/13 11:50:14;;;;;;;21.23;11.15;;;;;;;2.36;77.64;99084.78;4929670;29;20423;-62
2021/01/13 11:52:45;;;;;;;20.73;9.50;;;;;;;2.27;77.73;99086.72;4929853;29;20131;-62